sensor_id;sensor_type;location;lat;lon;timestamp;P1;durP1;ratioP1;P2;durP2;ratioP2
48203;SDS011;33994;50.998;5.864;2022-12-07T00:01:53;23.05;;;12.55;;
48203;SDS011;33994;50.998;5.864;2022-12-07T00:04:56;26.30;;;13.43;;
48203;SDS011;33994;50.998;5.864;2022-12-07T00:08:01;24.30;;;13.25;;
48203;SDS011;33994;50.998;5.864;2022-12-07T00:11:04;22.48;;;13.45;;
48203;SDS011;33994;50.998;5.864;2022-12-07T00:14:10;26.17;;;13.00;;
48203;SDS011;33994;50.998;5.864;2022-12-07T00:17:15;27.20;;;12.98;;
48203;SDS011;33994;50.998;5.864;2022-12-07T00:20:18;27.55;;;13.60;;
48203;SDS011;33994;50.998;5.864;2022-12-07T00:23:22;24.73;;;13.32;;
48203;SDS011;33994;50.998;5.864;2022-12-07T00:26:26;22.10;;;13.30;;
48203;SDS011;33994;50.998;5.864;2022-12-07T00:29:30;24.10;;;11.98;;
48203;SDS011;33994;50.998;5.864;2022-12-07T00:32:33;21.00;;;12.55;;
48203;SDS011;33994;50.998;5.864;2022-12-07T00:35:36;19.13;;;12.20;;
48203;SDS011;33994;50.998;5.864;2022-12-07T00:38:40;22.45;;;13.35;;
48203;SDS011;33994;50.998;5.864;2022-12-07T00:41:44;19.98;;;12.20;;
48203;SDS011;33994;50.998;5.864;2022-12-07T00:44:47;19.92;;;12.48;;
48203;SDS011;33994;50.998;5.864;2022-12-07T00:47:51;21.02;;;11.90;;
48203;SDS011;33994;50.998;5.864;2022-12-07T00:50:54;23.50;;;12.68;;
48203;SDS011;33994;50.998;5.864;2022-12-07T00:53:58;21.25;;;12.82;;
48203;SDS011;33994;50.998;5.864;2022-12-07T00:57:02;25.02;;;12.90;;
48203;SDS011;33994;50.998;5.864;2022-12-07T01:00:05;22.55;;;12.50;;
48203;SDS011;33994;50.998;5.864;2022-12-07T01:03:10;25.73;;;13.68;;
48203;SDS011;33994;50.998;5.864;2022-12-07T01:06:15;23.05;;;13.48;;
48203;SDS011;33994;50.998;5.864;2022-12-07T01:09:19;27.70;;;14.82;;
48203;SDS011;33994;50.998;5.864;2022-12-07T01:12:22;29.33;;;16.02;;
48203;SDS011;33994;50.998;5.864;2022-12-07T01:15:25;25.65;;;15.10;;
48203;SDS011;33994;50.998;5.864;2022-12-07T01:18:29;27.80;;;15.98;;
48203;SDS011;33994;50.998;5.864;2022-12-07T01:21:34;31.08;;;16.80;;
48203;SDS011;33994;50.998;5.864;2022-12-07T01:24:39;25.50;;;16.80;;
48203;SDS011;33994;50.998;5.864;2022-12-07T01:27:42;28.88;;;16.45;;
48203;SDS011;33994;50.998;5.864;2022-12-07T01:30:45;32.05;;;17.73;;
48203;SDS011;33994;50.998;5.864;2022-12-07T01:33:58;37.13;;;19.55;;
48203;SDS011;33994;50.998;5.864;2022-12-07T01:37:02;31.58;;;18.50;;
48203;SDS011;33994;50.998;5.864;2022-12-07T01:40:07;32.50;;;19.15;;
48203;SDS011;33994;50.998;5.864;2022-12-07T01:43:14;36.58;;;19.00;;
48203;SDS011;33994;50.998;5.864;2022-12-07T01:46:21;41.10;;;20.27;;
48203;SDS011;33994;50.998;5.864;2022-12-07T01:49:28;40.13;;;19.75;;
48203;SDS011;33994;50.998;5.864;2022-12-07T01:52:35;34.33;;;19.67;;
48203;SDS011;33994;50.998;5.864;2022-12-07T01:55:42;38.38;;;20.42;;
48203;SDS011;33994;50.998;5.864;2022-12-07T01:58:48;37.25;;;20.27;;
48203;SDS011;33994;50.998;5.864;2022-12-07T02:01:52;37.55;;;20.10;;
48203;SDS011;33994;50.998;5.864;2022-12-07T02:04:56;34.45;;;20.33;;
48203;SDS011;33994;50.998;5.864;2022-12-07T02:08:01;38.85;;;21.67;;
48203;SDS011;33994;50.998;5.864;2022-12-07T02:11:07;38.90;;;21.17;;
48203;SDS011;33994;50.998;5.864;2022-12-07T02:14:11;43.60;;;22.02;;
48203;SDS011;33994;50.998;5.864;2022-12-07T02:17:16;35.75;;;20.88;;
48203;SDS011;33994;50.998;5.864;2022-12-07T02:20:28;38.47;;;20.33;;
48203;SDS011;33994;50.998;5.864;2022-12-07T02:27:39;41.08;;;21.17;;
48203;SDS011;33994;50.998;5.864;2022-12-07T02:30:50;43.97;;;21.92;;
48203;SDS011;33994;50.998;5.864;2022-12-07T02:34:00;39.95;;;22.10;;
48203;SDS011;33994;50.998;5.864;2022-12-07T02:37:12;40.67;;;21.33;;
48203;SDS011;33994;50.998;5.864;2022-12-07T02:40:25;37.85;;;21.00;;
48203;SDS011;33994;50.998;5.864;2022-12-07T02:43:34;37.80;;;21.80;;
48203;SDS011;33994;50.998;5.864;2022-12-07T02:46:42;40.42;;;22.02;;
48203;SDS011;33994;50.998;5.864;2022-12-07T02:49:50;38.30;;;22.10;;
48203;SDS011;33994;50.998;5.864;2022-12-07T02:52:54;42.25;;;22.95;;
48203;SDS011;33994;50.998;5.864;2022-12-07T02:55:58;42.83;;;23.67;;
48203;SDS011;33994;50.998;5.864;2022-12-07T02:59:07;46.33;;;22.80;;
48203;SDS011;33994;50.998;5.864;2022-12-07T03:02:20;43.55;;;22.00;;
48203;SDS011;33994;50.998;5.864;2022-12-07T03:05:36;44.65;;;21.48;;
48203;SDS011;33994;50.998;5.864;2022-12-07T03:08:52;41.90;;;21.77;;
48203;SDS011;33994;50.998;5.864;2022-12-07T03:12:04;36.75;;;21.25;;
48203;SDS011;33994;50.998;5.864;2022-12-07T03:15:14;39.28;;;21.70;;
48203;SDS011;33994;50.998;5.864;2022-12-07T03:18:24;39.33;;;21.77;;
48203;SDS011;33994;50.998;5.864;2022-12-07T03:21:31;37.95;;;20.08;;
48203;SDS011;33994;50.998;5.864;2022-12-07T03:24:39;36.25;;;16.25;;
48203;SDS011;33994;50.998;5.864;2022-12-07T03:27:47;38.75;;;20.05;;
48203;SDS011;33994;50.998;5.864;2022-12-07T03:30:56;37.60;;;20.15;;
48203;SDS011;33994;50.998;5.864;2022-12-07T03:34:06;41.33;;;21.52;;
48203;SDS011;33994;50.998;5.864;2022-12-07T03:37:14;36.25;;;20.40;;
48203;SDS011;33994;50.998;5.864;2022-12-07T03:40:22;34.75;;;19.15;;
48203;SDS011;33994;50.998;5.864;2022-12-07T03:43:31;35.22;;;19.33;;
48203;SDS011;33994;50.998;5.864;2022-12-07T03:46:36;39.33;;;19.83;;
48203;SDS011;33994;50.998;5.864;2022-12-07T03:49:45;36.42;;;20.77;;
48203;SDS011;33994;50.998;5.864;2022-12-07T03:52:53;37.15;;;20.02;;
48203;SDS011;33994;50.998;5.864;2022-12-07T03:56:00;38.50;;;20.63;;
48203;SDS011;33994;50.998;5.864;2022-12-07T03:59:04;38.08;;;20.50;;
48203;SDS011;33994;50.998;5.864;2022-12-07T04:02:08;33.35;;;20.10;;
48203;SDS011;33994;50.998;5.864;2022-12-07T04:05:17;30.83;;;19.17;;
48203;SDS011;33994;50.998;5.864;2022-12-07T04:08:20;33.72;;;20.25;;
48203;SDS011;33994;50.998;5.864;2022-12-07T04:11:23;34.90;;;20.08;;
48203;SDS011;33994;50.998;5.864;2022-12-07T04:14:26;41.38;;;20.45;;
48203;SDS011;33994;50.998;5.864;2022-12-07T04:17:29;37.00;;;20.00;;
48203;SDS011;33994;50.998;5.864;2022-12-07T04:20:34;37.38;;;21.23;;
48203;SDS011;33994;50.998;5.864;2022-12-07T04:23:37;35.88;;;20.98;;
48203;SDS011;33994;50.998;5.864;2022-12-07T04:26:40;38.40;;;19.73;;
48203;SDS011;33994;50.998;5.864;2022-12-07T04:29:43;34.03;;;19.83;;
48203;SDS011;33994;50.998;5.864;2022-12-07T04:32:46;34.72;;;20.42;;
48203;SDS011;33994;50.998;5.864;2022-12-07T04:35:50;41.45;;;19.80;;
48203;SDS011;33994;50.998;5.864;2022-12-07T04:38:54;33.08;;;19.35;;
48203;SDS011;33994;50.998;5.864;2022-12-07T04:41:58;35.58;;;19.95;;
48203;SDS011;33994;50.998;5.864;2022-12-07T04:45:02;33.47;;;19.13;;
48203;SDS011;33994;50.998;5.864;2022-12-07T04:48:05;38.15;;;19.95;;
48203;SDS011;33994;50.998;5.864;2022-12-07T04:51:10;35.95;;;19.75;;
48203;SDS011;33994;50.998;5.864;2022-12-07T04:54:13;31.02;;;17.35;;
48203;SDS011;33994;50.998;5.864;2022-12-07T04:57:16;37.20;;;19.63;;
48203;SDS011;33994;50.998;5.864;2022-12-07T05:00:19;39.22;;;21.40;;
48203;SDS011;33994;50.998;5.864;2022-12-07T05:03:22;36.88;;;19.15;;
48203;SDS011;33994;50.998;5.864;2022-12-07T05:06:27;36.55;;;19.77;;
48203;SDS011;33994;50.998;5.864;2022-12-07T05:09:30;32.92;;;18.98;;
48203;SDS011;33994;50.998;5.864;2022-12-07T05:12:32;32.88;;;18.80;;
48203;SDS011;33994;50.998;5.864;2022-12-07T05:15:36;32.58;;;18.75;;
48203;SDS011;33994;50.998;5.864;2022-12-07T05:18:39;31.60;;;18.05;;
48203;SDS011;33994;50.998;5.864;2022-12-07T05:21:43;35.17;;;17.73;;
48203;SDS011;33994;50.998;5.864;2022-12-07T05:24:46;35.42;;;16.77;;
48203;SDS011;33994;50.998;5.864;2022-12-07T05:27:50;28.85;;;16.85;;
48203;SDS011;33994;50.998;5.864;2022-12-07T05:30:53;28.83;;;16.13;;
48203;SDS011;33994;50.998;5.864;2022-12-07T05:33:56;34.65;;;18.25;;
48203;SDS011;33994;50.998;5.864;2022-12-07T05:37:00;33.35;;;18.48;;
48203;SDS011;33994;50.998;5.864;2022-12-07T05:40:04;30.23;;;17.45;;
48203;SDS011;33994;50.998;5.864;2022-12-07T05:43:08;32.50;;;17.85;;
48203;SDS011;33994;50.998;5.864;2022-12-07T05:46:11;30.60;;;16.27;;
48203;SDS011;33994;50.998;5.864;2022-12-07T05:49:14;33.35;;;18.27;;
48203;SDS011;33994;50.998;5.864;2022-12-07T05:52:19;29.42;;;17.13;;
48203;SDS011;33994;50.998;5.864;2022-12-07T05:55:22;33.47;;;18.17;;
48203;SDS011;33994;50.998;5.864;2022-12-07T05:58:25;33.83;;;17.25;;
48203;SDS011;33994;50.998;5.864;2022-12-07T06:01:28;37.55;;;19.40;;
48203;SDS011;33994;50.998;5.864;2022-12-07T06:04:33;34.58;;;18.60;;
48203;SDS011;33994;50.998;5.864;2022-12-07T06:07:38;33.42;;;18.90;;
48203;SDS011;33994;50.998;5.864;2022-12-07T06:10:41;33.83;;;18.83;;
48203;SDS011;33994;50.998;5.864;2022-12-07T06:13:44;36.08;;;20.38;;
48203;SDS011;33994;50.998;5.864;2022-12-07T06:16:47;38.63;;;18.60;;
48203;SDS011;33994;50.998;5.864;2022-12-07T06:19:51;33.15;;;18.75;;
48203;SDS011;33994;50.998;5.864;2022-12-07T06:22:55;41.53;;;18.48;;
48203;SDS011;33994;50.998;5.864;2022-12-07T06:25:58;33.40;;;19.00;;
48203;SDS011;33994;50.998;5.864;2022-12-07T06:29:01;33.15;;;18.45;;
48203;SDS011;33994;50.998;5.864;2022-12-07T06:32:04;34.67;;;18.13;;
48203;SDS011;33994;50.998;5.864;2022-12-07T06:35:07;32.90;;;19.63;;
48203;SDS011;33994;50.998;5.864;2022-12-07T06:38:12;32.67;;;17.55;;
48203;SDS011;33994;50.998;5.864;2022-12-07T06:41:15;37.97;;;18.25;;
48203;SDS011;33994;50.998;5.864;2022-12-07T06:44:18;36.92;;;18.58;;
48203;SDS011;33994;50.998;5.864;2022-12-07T06:47:21;34.05;;;18.10;;
48203;SDS011;33994;50.998;5.864;2022-12-07T06:50:24;35.63;;;19.77;;
48203;SDS011;33994;50.998;5.864;2022-12-07T06:53:28;41.95;;;19.17;;
48203;SDS011;33994;50.998;5.864;2022-12-07T06:56:31;34.13;;;18.95;;
48203;SDS011;33994;50.998;5.864;2022-12-07T06:59:34;37.80;;;19.90;;
48203;SDS011;33994;50.998;5.864;2022-12-07T07:02:37;42.75;;;20.08;;
48203;SDS011;33994;50.998;5.864;2022-12-07T07:05:41;37.95;;;19.50;;
48203;SDS011;33994;50.998;5.864;2022-12-07T07:08:45;39.42;;;20.58;;
48203;SDS011;33994;50.998;5.864;2022-12-07T07:11:48;37.53;;;19.30;;
48203;SDS011;33994;50.998;5.864;2022-12-07T07:14:51;38.85;;;20.77;;
48203;SDS011;33994;50.998;5.864;2022-12-07T07:17:54;40.50;;;19.38;;
48203;SDS011;33994;50.998;5.864;2022-12-07T07:20:57;33.97;;;19.33;;
48203;SDS011;33994;50.998;5.864;2022-12-07T07:24:01;39.13;;;20.52;;
48203;SDS011;33994;50.998;5.864;2022-12-07T07:27:04;32.65;;;19.08;;
48203;SDS011;33994;50.998;5.864;2022-12-07T07:30:08;36.08;;;19.50;;
48203;SDS011;33994;50.998;5.864;2022-12-07T07:33:12;35.13;;;19.33;;
48203;SDS011;33994;50.998;5.864;2022-12-07T07:36:15;31.20;;;18.20;;
48203;SDS011;33994;50.998;5.864;2022-12-07T07:39:20;37.72;;;18.63;;
48203;SDS011;33994;50.998;5.864;2022-12-07T07:42:23;37.90;;;18.65;;
48203;SDS011;33994;50.998;5.864;2022-12-07T07:45:26;36.30;;;17.75;;
48203;SDS011;33994;50.998;5.864;2022-12-07T07:48:29;36.55;;;17.65;;
48203;SDS011;33994;50.998;5.864;2022-12-07T07:51:33;37.30;;;19.00;;
48203;SDS011;33994;50.998;5.864;2022-12-07T07:54:37;35.63;;;19.13;;
48203;SDS011;33994;50.998;5.864;2022-12-07T07:57:40;38.97;;;18.92;;
48203;SDS011;33994;50.998;5.864;2022-12-07T08:00:43;35.67;;;18.52;;
48203;SDS011;33994;50.998;5.864;2022-12-07T08:03:46;37.28;;;19.98;;
48203;SDS011;33994;50.998;5.864;2022-12-07T08:06:50;38.67;;;20.55;;
48203;SDS011;33994;50.998;5.864;2022-12-07T08:09:55;47.50;;;20.27;;
48203;SDS011;33994;50.998;5.864;2022-12-07T08:12:58;39.60;;;19.73;;
48203;SDS011;33994;50.998;5.864;2022-12-07T08:16:03;40.05;;;20.15;;
48203;SDS011;33994;50.998;5.864;2022-12-07T08:19:06;38.85;;;20.00;;
48203;SDS011;33994;50.998;5.864;2022-12-07T08:22:09;37.03;;;20.55;;
48203;SDS011;33994;50.998;5.864;2022-12-07T08:25:14;38.92;;;19.20;;
48203;SDS011;33994;50.998;5.864;2022-12-07T08:28:17;44.63;;;20.80;;
48203;SDS011;33994;50.998;5.864;2022-12-07T08:31:20;46.03;;;21.55;;
48203;SDS011;33994;50.998;5.864;2022-12-07T08:34:23;43.95;;;22.10;;
48203;SDS011;33994;50.998;5.864;2022-12-07T08:37:26;43.10;;;21.23;;
48203;SDS011;33994;50.998;5.864;2022-12-07T08:40:31;49.30;;;23.45;;
48203;SDS011;33994;50.998;5.864;2022-12-07T08:43:34;47.25;;;23.60;;
48203;SDS011;33994;50.998;5.864;2022-12-07T08:46:38;52.92;;;24.30;;
48203;SDS011;33994;50.998;5.864;2022-12-07T08:49:45;56.00;;;26.33;;
48203;SDS011;33994;50.998;5.864;2022-12-07T08:55:58;52.40;;;25.77;;
48203;SDS011;33994;50.998;5.864;2022-12-07T08:59:01;54.60;;;26.00;;
48203;SDS011;33994;50.998;5.864;2022-12-07T09:02:06;64.65;;;29.30;;
48203;SDS011;33994;50.998;5.864;2022-12-07T09:05:08;65.53;;;29.58;;
48203;SDS011;33994;50.998;5.864;2022-12-07T09:08:11;60.00;;;27.90;;
48203;SDS011;33994;50.998;5.864;2022-12-07T09:11:16;63.72;;;29.02;;
48203;SDS011;33994;50.998;5.864;2022-12-07T09:14:19;60.10;;;27.20;;
48203;SDS011;33994;50.998;5.864;2022-12-07T09:17:22;59.53;;;27.00;;
48203;SDS011;33994;50.998;5.864;2022-12-07T09:20:25;64.60;;;26.98;;
48203;SDS011;33994;50.998;5.864;2022-12-07T09:23:28;56.50;;;28.83;;
48203;SDS011;33994;50.998;5.864;2022-12-07T09:26:33;58.95;;;27.70;;
48203;SDS011;33994;50.998;5.864;2022-12-07T09:29:35;56.58;;;27.70;;
48203;SDS011;33994;50.998;5.864;2022-12-07T09:32:39;57.28;;;27.05;;
48203;SDS011;33994;50.998;5.864;2022-12-07T09:35:44;61.22;;;28.38;;
48203;SDS011;33994;50.998;5.864;2022-12-07T09:38:47;60.28;;;30.05;;
48203;SDS011;33994;50.998;5.864;2022-12-07T09:41:52;57.80;;;28.20;;
48203;SDS011;33994;50.998;5.864;2022-12-07T09:44:55;55.05;;;27.55;;
48203;SDS011;33994;50.998;5.864;2022-12-07T09:47:59;58.58;;;28.02;;
48203;SDS011;33994;50.998;5.864;2022-12-07T09:51:02;53.88;;;26.75;;
48203;SDS011;33994;50.998;5.864;2022-12-07T09:54:16;56.53;;;29.02;;
48203;SDS011;33994;50.998;5.864;2022-12-07T09:57:22;50.03;;;25.50;;
48203;SDS011;33994;50.998;5.864;2022-12-07T10:00:31;52.78;;;27.02;;
48203;SDS011;33994;50.998;5.864;2022-12-07T10:03:34;60.13;;;28.67;;
48203;SDS011;33994;50.998;5.864;2022-12-07T10:06:39;55.00;;;28.48;;
48203;SDS011;33994;50.998;5.864;2022-12-07T10:09:42;52.25;;;28.25;;
48203;SDS011;33994;50.998;5.864;2022-12-07T10:12:57;54.10;;;26.67;;
48203;SDS011;33994;50.998;5.864;2022-12-07T10:16:02;66.63;;;29.25;;
48203;SDS011;33994;50.998;5.864;2022-12-07T10:22:27;46.33;;;23.75;;
48203;SDS011;33994;50.998;5.864;2022-12-07T10:25:31;44.00;;;21.40;;
48203;SDS011;33994;50.998;5.864;2022-12-07T10:28:37;31.92;;;18.35;;
48203;SDS011;33994;50.998;5.864;2022-12-07T10:31:40;37.92;;;18.70;;
48203;SDS011;33994;50.998;5.864;2022-12-07T10:34:44;39.78;;;20.17;;
48203;SDS011;33994;50.998;5.864;2022-12-07T10:37:47;34.80;;;19.30;;
48203;SDS011;33994;50.998;5.864;2022-12-07T10:40:54;38.10;;;16.80;;
48203;SDS011;33994;50.998;5.864;2022-12-07T10:44:08;30.67;;;15.70;;
48203;SDS011;33994;50.998;5.864;2022-12-07T10:47:32;36.95;;;16.17;;
48203;SDS011;33994;50.998;5.864;2022-12-07T10:50:47;34.80;;;14.65;;
48203;SDS011;33994;50.998;5.864;2022-12-07T10:54:01;23.23;;;13.10;;
48203;SDS011;33994;50.998;5.864;2022-12-07T10:57:18;22.35;;;12.73;;
48203;SDS011;33994;50.998;5.864;2022-12-07T11:00:36;22.00;;;10.75;;
48203;SDS011;33994;50.998;5.864;2022-12-07T11:07:21;21.20;;;9.43;;
48203;SDS011;33994;50.998;5.864;2022-12-07T11:10:39;21.05;;;9.55;;
48203;SDS011;33994;50.998;5.864;2022-12-07T11:13:51;18.27;;;8.50;;
48203;SDS011;33994;50.998;5.864;2022-12-07T11:17:01;19.60;;;8.50;;
48203;SDS011;33994;50.998;5.864;2022-12-07T11:20:12;20.13;;;10.65;;
48203;SDS011;33994;50.998;5.864;2022-12-07T11:23:27;25.52;;;11.30;;
48203;SDS011;33994;50.998;5.864;2022-12-07T11:26:45;23.45;;;10.90;;
48203;SDS011;33994;50.998;5.864;2022-12-07T11:30:02;32.33;;;12.60;;
48203;SDS011;33994;50.998;5.864;2022-12-07T11:33:17;21.92;;;9.20;;
48203;SDS011;33994;50.998;5.864;2022-12-07T11:36:32;20.00;;;8.70;;
48203;SDS011;33994;50.998;5.864;2022-12-07T11:39:41;17.90;;;8.20;;
48203;SDS011;33994;50.998;5.864;2022-12-07T11:42:51;18.35;;;8.30;;
48203;SDS011;33994;50.998;5.864;2022-12-07T11:49:10;14.02;;;7.60;;
48203;SDS011;33994;50.998;5.864;2022-12-07T11:52:20;20.48;;;8.60;;
48203;SDS011;33994;50.998;5.864;2022-12-07T11:55:32;18.65;;;7.63;;
48203;SDS011;33994;50.998;5.864;2022-12-07T11:58:48;18.15;;;7.20;;
48203;SDS011;33994;50.998;5.864;2022-12-07T12:01:57;14.93;;;6.78;;
48203;SDS011;33994;50.998;5.864;2022-12-07T12:05:12;10.13;;;5.90;;
48203;SDS011;33994;50.998;5.864;2022-12-07T12:08:19;16.30;;;6.63;;
48203;SDS011;33994;50.998;5.864;2022-12-07T12:11:32;20.63;;;7.07;;
48203;SDS011;33994;50.998;5.864;2022-12-07T12:14:53;15.90;;;7.43;;
48203;SDS011;33994;50.998;5.864;2022-12-07T12:18:21;45.38;;;8.18;;
48203;SDS011;33994;50.998;5.864;2022-12-07T12:21:43;15.27;;;5.80;;
48203;SDS011;33994;50.998;5.864;2022-12-07T12:24:51;12.68;;;5.88;;
48203;SDS011;33994;50.998;5.864;2022-12-07T12:27:57;15.55;;;5.85;;
48203;SDS011;33994;50.998;5.864;2022-12-07T12:31:05;17.13;;;6.45;;
48203;SDS011;33994;50.998;5.864;2022-12-07T12:34:31;12.70;;;6.05;;
48203;SDS011;33994;50.998;5.864;2022-12-07T12:37:44;12.90;;;6.03;;
48203;SDS011;33994;50.998;5.864;2022-12-07T12:40:48;11.05;;;6.03;;
48203;SDS011;33994;50.998;5.864;2022-12-07T12:43:51;9.10;;;4.90;;
48203;SDS011;33994;50.998;5.864;2022-12-07T12:46:55;17.23;;;6.70;;
48203;SDS011;33994;50.998;5.864;2022-12-07T12:50:22;26.02;;;6.95;;
48203;SDS011;33994;50.998;5.864;2022-12-07T12:53:28;21.17;;;6.20;;
48203;SDS011;33994;50.998;5.864;2022-12-07T12:56:35;13.60;;;6.45;;
48203;SDS011;33994;50.998;5.864;2022-12-07T12:59:55;12.55;;;6.45;;
48203;SDS011;33994;50.998;5.864;2022-12-07T13:03:00;13.55;;;5.95;;
48203;SDS011;33994;50.998;5.864;2022-12-07T13:06:17;28.52;;;6.82;;
48203;SDS011;33994;50.998;5.864;2022-12-07T13:09:23;10.77;;;5.35;;
48203;SDS011;33994;50.998;5.864;2022-12-07T13:12:28;17.25;;;6.80;;
48203;SDS011;33994;50.998;5.864;2022-12-07T13:15:33;19.35;;;6.53;;
48203;SDS011;33994;50.998;5.864;2022-12-07T13:18:38;14.25;;;7.25;;
48203;SDS011;33994;50.998;5.864;2022-12-07T13:21:42;16.98;;;7.07;;
48203;SDS011;33994;50.998;5.864;2022-12-07T13:24:47;9.50;;;5.60;;
48203;SDS011;33994;50.998;5.864;2022-12-07T13:27:52;15.68;;;6.43;;
48203;SDS011;33994;50.998;5.864;2022-12-07T13:31:03;17.15;;;6.20;;
48203;SDS011;33994;50.998;5.864;2022-12-07T13:34:30;17.23;;;6.00;;
48203;SDS011;33994;50.998;5.864;2022-12-07T13:37:35;20.10;;;6.15;;
48203;SDS011;33994;50.998;5.864;2022-12-07T13:40:40;14.50;;;5.75;;
48203;SDS011;33994;50.998;5.864;2022-12-07T13:43:46;16.23;;;6.55;;
48203;SDS011;33994;50.998;5.864;2022-12-07T13:46:54;10.98;;;5.75;;
48203;SDS011;33994;50.998;5.864;2022-12-07T13:50:20;13.43;;;5.82;;
48203;SDS011;33994;50.998;5.864;2022-12-07T13:53:26;19.08;;;5.80;;
48203;SDS011;33994;50.998;5.864;2022-12-07T13:56:33;15.30;;;5.95;;
48203;SDS011;33994;50.998;5.864;2022-12-07T13:59:37;19.08;;;6.40;;
48203;SDS011;33994;50.998;5.864;2022-12-07T14:02:53;14.63;;;6.47;;
48203;SDS011;33994;50.998;5.864;2022-12-07T14:06:15;15.85;;;6.28;;
48203;SDS011;33994;50.998;5.864;2022-12-07T14:09:22;14.70;;;5.70;;
48203;SDS011;33994;50.998;5.864;2022-12-07T14:12:29;16.63;;;5.38;;
48203;SDS011;33994;50.998;5.864;2022-12-07T14:15:34;11.35;;;5.28;;
48203;SDS011;33994;50.998;5.864;2022-12-07T14:18:38;13.60;;;5.78;;
48203;SDS011;33994;50.998;5.864;2022-12-07T14:21:42;16.92;;;6.38;;
48203;SDS011;33994;50.998;5.864;2022-12-07T14:24:46;16.08;;;6.25;;
48203;SDS011;33994;50.998;5.864;2022-12-07T14:27:51;14.55;;;5.45;;
48203;SDS011;33994;50.998;5.864;2022-12-07T14:30:58;14.40;;;5.93;;
48203;SDS011;33994;50.998;5.864;2022-12-07T14:34:02;13.80;;;5.88;;
48203;SDS011;33994;50.998;5.864;2022-12-07T14:37:07;16.23;;;6.28;;
48203;SDS011;33994;50.998;5.864;2022-12-07T14:40:12;12.13;;;6.50;;
48203;SDS011;33994;50.998;5.864;2022-12-07T14:43:18;11.88;;;5.68;;
48203;SDS011;33994;50.998;5.864;2022-12-07T14:46:22;16.83;;;6.15;;
48203;SDS011;33994;50.998;5.864;2022-12-07T14:49:25;16.38;;;6.90;;
48203;SDS011;33994;50.998;5.864;2022-12-07T14:52:28;18.95;;;5.95;;
48203;SDS011;33994;50.998;5.864;2022-12-07T14:55:31;14.15;;;5.85;;
48203;SDS011;33994;50.998;5.864;2022-12-07T14:58:36;17.08;;;6.05;;
48203;SDS011;33994;50.998;5.864;2022-12-07T15:01:39;13.85;;;5.75;;
48203;SDS011;33994;50.998;5.864;2022-12-07T15:04:42;11.15;;;5.75;;
48203;SDS011;33994;50.998;5.864;2022-12-07T15:07:46;13.18;;;5.55;;
48203;SDS011;33994;50.998;5.864;2022-12-07T15:10:49;13.88;;;5.22;;
48203;SDS011;33994;50.998;5.864;2022-12-07T15:13:53;14.40;;;5.50;;
48203;SDS011;33994;50.998;5.864;2022-12-07T15:16:56;22.08;;;5.95;;
48203;SDS011;33994;50.998;5.864;2022-12-07T15:19:59;14.60;;;6.30;;
48203;SDS011;33994;50.998;5.864;2022-12-07T15:23:02;9.55;;;5.03;;
48203;SDS011;33994;50.998;5.864;2022-12-07T15:26:05;12.45;;;5.05;;
48203;SDS011;33994;50.998;5.864;2022-12-07T15:29:10;9.85;;;5.30;;
48203;SDS011;33994;50.998;5.864;2022-12-07T15:32:13;9.15;;;4.28;;
48203;SDS011;33994;50.998;5.864;2022-12-07T15:35:16;8.95;;;5.05;;
48203;SDS011;33994;50.998;5.864;2022-12-07T15:38:19;11.27;;;4.38;;
48203;SDS011;33994;50.998;5.864;2022-12-07T15:41:22;10.80;;;4.32;;
48203;SDS011;33994;50.998;5.864;2022-12-07T15:44:27;8.60;;;3.83;;
48203;SDS011;33994;50.998;5.864;2022-12-07T15:47:30;8.43;;;4.05;;
48203;SDS011;33994;50.998;5.864;2022-12-07T15:50:33;10.95;;;3.70;;
48203;SDS011;33994;50.998;5.864;2022-12-07T15:53:37;7.93;;;3.85;;
48203;SDS011;33994;50.998;5.864;2022-12-07T15:56:41;6.47;;;3.95;;
48203;SDS011;33994;50.998;5.864;2022-12-07T15:59:45;10.25;;;4.03;;
48203;SDS011;33994;50.998;5.864;2022-12-07T16:02:48;9.77;;;3.67;;
48203;SDS011;33994;50.998;5.864;2022-12-07T16:05:51;8.52;;;4.32;;
48203;SDS011;33994;50.998;5.864;2022-12-07T16:08:55;10.07;;;4.68;;
48203;SDS011;33994;50.998;5.864;2022-12-07T16:11:58;13.40;;;5.20;;
48203;SDS011;33994;50.998;5.864;2022-12-07T16:15:02;11.18;;;5.10;;
48203;SDS011;33994;50.998;5.864;2022-12-07T16:18:06;12.45;;;6.22;;
48203;SDS011;33994;50.998;5.864;2022-12-07T16:21:09;10.77;;;5.20;;
48203;SDS011;33994;50.998;5.864;2022-12-07T16:24:12;9.35;;;5.55;;
48203;SDS011;33994;50.998;5.864;2022-12-07T16:27:15;11.48;;;6.30;;
48203;SDS011;33994;50.998;5.864;2022-12-07T16:30:19;15.00;;;7.00;;
48203;SDS011;33994;50.998;5.864;2022-12-07T16:33:23;17.20;;;7.70;;
48203;SDS011;33994;50.998;5.864;2022-12-07T16:36:26;12.25;;;6.50;;
48203;SDS011;33994;50.998;5.864;2022-12-07T16:39:29;15.93;;;7.90;;
48203;SDS011;33994;50.998;5.864;2022-12-07T16:42:32;16.98;;;7.88;;
48203;SDS011;33994;50.998;5.864;2022-12-07T16:45:37;14.40;;;7.40;;
48203;SDS011;33994;50.998;5.864;2022-12-07T16:48:40;14.98;;;7.63;;
48203;SDS011;33994;50.998;5.864;2022-12-07T16:51:44;17.70;;;6.97;;
48203;SDS011;33994;50.998;5.864;2022-12-07T16:54:47;15.82;;;7.03;;
48203;SDS011;33994;50.998;5.864;2022-12-07T16:57:51;13.93;;;7.20;;
48203;SDS011;33994;50.998;5.864;2022-12-07T17:00:56;17.88;;;7.90;;
48203;SDS011;33994;50.998;5.864;2022-12-07T17:03:59;15.10;;;7.43;;
48203;SDS011;33994;50.998;5.864;2022-12-07T17:07:02;16.05;;;7.70;;
48203;SDS011;33994;50.998;5.864;2022-12-07T17:10:06;17.85;;;8.93;;
48203;SDS011;33994;50.998;5.864;2022-12-07T17:13:10;19.30;;;8.68;;
48203;SDS011;33994;50.998;5.864;2022-12-07T17:16:16;19.48;;;9.93;;
48203;SDS011;33994;50.998;5.864;2022-12-07T17:19:18;20.02;;;9.00;;
48203;SDS011;33994;50.998;5.864;2022-12-07T17:22:21;18.30;;;9.68;;
48203;SDS011;33994;50.998;5.864;2022-12-07T17:25:24;16.42;;;9.13;;
48203;SDS011;33994;50.998;5.864;2022-12-07T17:28:28;16.88;;;9.93;;
48203;SDS011;33994;50.998;5.864;2022-12-07T17:31:32;18.60;;;9.57;;
48203;SDS011;33994;50.998;5.864;2022-12-07T17:34:35;19.13;;;10.13;;
48203;SDS011;33994;50.998;5.864;2022-12-07T17:37:38;19.38;;;9.77;;
48203;SDS011;33994;50.998;5.864;2022-12-07T17:40:41;15.43;;;9.25;;
48203;SDS011;33994;50.998;5.864;2022-12-07T17:43:45;19.13;;;8.82;;
48203;SDS011;33994;50.998;5.864;2022-12-07T17:46:50;15.43;;;9.27;;
48203;SDS011;33994;50.998;5.864;2022-12-07T17:49:55;17.17;;;9.48;;
48203;SDS011;33994;50.998;5.864;2022-12-07T17:52:58;14.55;;;8.75;;
48203;SDS011;33994;50.998;5.864;2022-12-07T17:56:01;15.25;;;8.90;;
48203;SDS011;33994;50.998;5.864;2022-12-07T17:59:04;15.23;;;8.57;;
48203;SDS011;33994;50.998;5.864;2022-12-07T18:02:09;15.10;;;9.50;;
48203;SDS011;33994;50.998;5.864;2022-12-07T18:05:12;18.02;;;9.73;;
48203;SDS011;33994;50.998;5.864;2022-12-07T18:08:15;15.60;;;8.93;;
48203;SDS011;33994;50.998;5.864;2022-12-07T18:11:18;17.83;;;8.98;;
48203;SDS011;33994;50.998;5.864;2022-12-07T18:14:22;17.08;;;9.43;;
48203;SDS011;33994;50.998;5.864;2022-12-07T18:17:26;23.45;;;8.43;;
48203;SDS011;33994;50.998;5.864;2022-12-07T18:20:28;16.75;;;9.27;;
48203;SDS011;33994;50.998;5.864;2022-12-07T18:23:32;15.73;;;8.55;;
48203;SDS011;33994;50.998;5.864;2022-12-07T18:26:35;16.17;;;8.13;;
48203;SDS011;33994;50.998;5.864;2022-12-07T18:29:38;15.88;;;8.80;;